Nearby METAR Reports

 

KAVP - Avoca/Wilkes B., Pennsylvania, USA
Distance from station: N 16mi, 25km
Updated: 10/25/2021 8:54am
Mist, Clear
Mist, Clear
 Wind from calm
Wind: Calm
Temperature: 54°F , 12°C
Dew Point: 52°F , 11°C
Humidity: 94%
Barometer: 29.94 inHg , 1013.9 hPa
Summary: Mist
Clouds: Clear
Visibility: 5 miles , 8 km
2021/10/25 12:54 KAVP 251254Z 00000KT 5SM BR CLR 12/11 A2994 RMK AO2 SLP138 T01170106
KMPO - Mt. Pocono, Pennsylvania, USA
Distance from station: E 20mi, 33km
Updated: 10/25/2021 9:10am
Partly cloudy
Partly cloudy
 Wind from SW
Wind: SW 3 mph , 6 km/h
Temperature: 54°F , 12°C
Dew Point: 54°F , 12°C
Humidity: 100%
Barometer: 29.96 inHg , 1014.6 hPa
Clouds: Partly cloudy
Visibility: 10 miles , 16 km
Cloud details: Partly cloudy 600 ft
2021/10/25 13:10 KMPO 251310Z AUTO 22003KT 10SM SCT006 12/12 A2996 RMK AO2 T01220122
 
KABE - Allentown, Pennsylvania, USA
Distance from station: SSE 36mi, 58km
Updated: 10/25/2021 8:51am
Mist, Overcast
Mist, Overcast
 Wind from N
Wind: N 3 mph , 6 km/h
Temperature: 57°F , 14°C
Dew Point: 55°F , 13°C
Humidity: 94%
Barometer: 29.97 inHg , 1014.9 hPa
Summary: Mist
Clouds: Overcast
Visibility: 6 miles , 10 km
Cloud details: Mostly cloudy 900 ft
Overcast 1400 ft
2021/10/25 12:51 KABE 251251Z 35003KT 6SM BR BKN009 OVC014 14/13 A2997 RMK AO2 SLP147 T01440133
KXLL - Allentown Queen, Pennsylvania, USA
Distance from station: SSE 41mi, 65km
Updated: 10/25/2021 9:15am
Overcast
Overcast
 Wind from calm
Wind: Calm
Temperature: 61°F , 16°C
Dew Point: 59°F , 15°C
Humidity: 94%
Barometer: 29.97 inHg , 1014.9 hPa
Clouds: Overcast
Visibility: 7 miles , 11 km
Cloud details: Overcast 1000 ft
2021/10/25 13:15 KXLL 251315Z AUTO 00000KT 7SM OVC010 16/15 A2997 RMK AO2